createdAt,value
2018-04-30T00:02:26.134Z,13.10
2018-04-30T00:04:54.385Z,13.20
2018-04-30T00:07:22.694Z,13.20
2018-04-30T00:09:50.985Z,13.20
2018-04-30T00:12:18.512Z,13.20
2018-04-30T00:14:45.996Z,13.20
2018-04-30T00:17:13.519Z,13.30
2018-04-30T00:19:41.018Z,13.30
2018-04-30T00:22:08.555Z,13.20
2018-04-30T00:24:36.859Z,13.20
2018-04-30T00:27:04.385Z,13.20
2018-04-30T00:29:32.646Z,13.20
2018-04-30T00:32:00.137Z,13.20
2018-04-30T00:34:27.730Z,13.20
2018-04-30T00:36:55.238Z,13.20
2018-04-30T00:39:22.756Z,13.20
2018-04-30T00:41:50.263Z,13.10
2018-04-30T00:44:17.802Z,13.20
2018-04-30T00:49:20.109Z,13.10
2018-04-30T00:51:47.701Z,13.20
2018-04-30T00:54:26.985Z,13.20
2018-04-30T00:56:54.533Z,13.20
2018-04-30T00:59:22.014Z,13.00
2018-04-30T01:01:50.320Z,13.00
2018-04-30T01:04:17.838Z,13.00
2018-04-30T01:06:46.127Z,12.90
2018-04-30T01:09:13.650Z,12.90
2018-04-30T01:11:41.159Z,12.80
2018-04-30T01:14:08.663Z,12.80
2018-04-30T01:16:36.155Z,12.70
2018-04-30T01:19:04.448Z,12.60
2018-04-30T01:21:31.967Z,12.60
2018-04-30T01:24:00.278Z,12.60
2018-04-30T01:26:27.801Z,12.60
2018-04-30T01:28:55.288Z,12.50
2018-04-30T01:31:22.815Z,12.50
2018-04-30T01:33:50.316Z,12.60
2018-04-30T01:36:17.821Z,12.60
2018-04-30T01:38:45.317Z,12.50
2018-04-30T01:41:12.831Z,12.50
2018-04-30T01:43:40.340Z,12.50
2018-04-30T01:46:07.855Z,12.40
2018-04-30T01:48:35.341Z,12.40
2018-04-30T01:51:02.846Z,12.30
2018-04-30T01:53:30.353Z,12.30
2018-04-30T01:55:58.616Z,12.20
2018-04-30T01:58:26.098Z,12.20
2018-04-30T02:00:53.620Z,12.20
2018-04-30T02:03:21.122Z,12.00
2018-04-30T02:05:48.614Z,12.00
2018-04-30T02:08:16.095Z,11.90
2018-04-30T02:10:43.588Z,11.90
2018-04-30T02:13:11.074Z,11.90
2018-04-30T02:15:38.570Z,11.90
2018-04-30T02:18:06.187Z,11.90
2018-04-30T02:20:33.686Z,11.90
2018-04-30T02:23:01.171Z,11.90
2018-04-30T02:25:28.672Z,11.80
2018-04-30T02:27:56.153Z,11.80
2018-04-30T02:30:23.659Z,11.90
2018-04-30T02:32:51.197Z,11.90
2018-04-30T02:35:18.701Z,11.90
2018-04-30T02:37:46.205Z,11.90
2018-04-30T02:40:13.724Z,11.90
2018-04-30T02:42:41.223Z,11.90
2018-04-30T02:45:08.734Z,11.90
2018-04-30T02:47:36.207Z,11.90
2018-04-30T02:50:03.691Z,11.90
2018-04-30T02:52:31.964Z,11.80
2018-04-30T02:55:00.241Z,11.80
2018-04-30T02:57:27.932Z,11.80
2018-04-30T02:59:55.435Z,11.70
2018-04-30T03:02:22.927Z,11.70
2018-04-30T03:04:50.430Z,11.60
2018-04-30T03:07:17.908Z,11.60
2018-04-30T03:09:45.495Z,11.60
2018-04-30T03:12:12.949Z,11.60
2018-04-30T03:14:40.473Z,11.60
2018-04-30T03:17:07.970Z,11.60
2018-04-30T03:19:35.480Z,11.50
2018-04-30T03:22:02.989Z,11.50
2018-04-30T03:24:30.472Z,11.50
2018-04-30T03:26:57.985Z,11.40
2018-04-30T03:29:26.242Z,11.40
2018-04-30T03:31:53.747Z,11.40
2018-04-30T03:34:21.265Z,11.30
2018-04-30T03:36:48.786Z,11.30
2018-04-30T03:39:16.278Z,11.30
2018-04-30T03:41:43.774Z,11.20
2018-04-30T03:44:11.284Z,11.20
2018-04-30T03:46:38.766Z,11.30
2018-04-30T03:49:07.021Z,11.30
2018-04-30T03:51:34.513Z,11.30
2018-04-30T03:54:02.069Z,11.10
2018-04-30T03:56:29.517Z,11.00
2018-04-30T03:58:57.772Z,11.10
2018-04-30T04:01:37.284Z,11.10
2018-04-30T04:04:16.815Z,11.00
2018-04-30T04:06:52.108Z,11.00
2018-04-30T04:09:20.359Z,10.90
2018-04-30T04:11:47.865Z,11.00
2018-04-30T04:14:15.353Z,11.00
2018-04-30T04:16:42.845Z,11.00
2018-04-30T04:19:10.382Z,11.00
2018-04-30T04:21:37.898Z,11.10
2018-04-30T04:24:05.391Z,11.10
2018-04-30T04:26:32.895Z,11.10
2018-04-30T04:29:00.413Z,11.10
2018-04-30T04:31:27.936Z,11.20
2018-04-30T04:33:55.479Z,11.30
2018-04-30T04:36:23.014Z,11.30
2018-04-30T04:38:50.502Z,11.30
2018-04-30T04:41:18.011Z,11.40
2018-04-30T04:43:45.651Z,11.40
2018-04-30T04:46:13.186Z,11.40
2018-04-30T04:48:40.734Z,11.50
2018-04-30T04:51:08.271Z,11.50
2018-04-30T04:53:36.587Z,11.40
2018-04-30T04:56:04.077Z,11.40
2018-04-30T04:58:32.435Z,11.30
2018-04-30T05:00:59.947Z,11.30
2018-04-30T05:03:27.765Z,11.20
2018-04-30T05:05:56.018Z,11.20
2018-04-30T05:08:23.524Z,11.20
2018-04-30T05:10:51.815Z,11.20
2018-04-30T05:13:19.326Z,11.20
2018-04-30T05:15:46.817Z,11.30
2018-04-30T05:18:15.080Z,11.30
2018-04-30T05:20:42.571Z,11.30
2018-04-30T05:23:10.096Z,11.30
2018-04-30T05:25:37.611Z,11.40
2018-04-30T05:28:05.755Z,11.50
2018-04-30T05:30:33.298Z,11.50
2018-04-30T05:33:00.898Z,11.60
2018-04-30T05:35:28.397Z,11.70
2018-04-30T05:37:55.934Z,11.70
2018-04-30T05:40:23.475Z,11.80
2018-04-30T05:42:50.975Z,11.90
2018-04-30T05:45:18.520Z,12.00
2018-04-30T05:47:46.039Z,12.00
2018-04-30T05:50:13.531Z,12.10
2018-04-30T05:52:41.033Z,12.10
2018-04-30T05:55:08.605Z,12.20
2018-04-30T05:57:36.055Z,12.20
2018-04-30T06:00:03.593Z,12.40
2018-04-30T06:02:31.091Z,12.40
2018-04-30T06:04:58.630Z,12.50
2018-04-30T06:07:26.185Z,12.60
2018-04-30T06:09:54.525Z,12.60
2018-04-30T06:12:22.855Z,12.70
2018-04-30T06:14:50.385Z,12.70
2018-04-30T06:17:18.648Z,13.00
2018-04-30T06:19:46.196Z,13.00
2018-04-30T06:22:13.702Z,13.10
2018-04-30T06:24:41.177Z,13.20
2018-04-30T06:27:08.741Z,13.20
2018-04-30T06:29:36.965Z,13.20
2018-04-30T06:32:05.272Z,13.40
2018-04-30T06:34:32.777Z,13.30
2018-04-30T06:37:00.284Z,13.40
2018-04-30T06:39:27.826Z,13.30
2018-04-30T06:41:55.297Z,13.20
2018-04-30T06:44:22.948Z,13.20
2018-04-30T06:46:51.204Z,13.40
2018-04-30T06:49:19.483Z,13.50
2018-04-30T06:51:47.748Z,13.50
2018-04-30T06:54:16.027Z,13.60
2018-04-30T06:56:44.281Z,13.70
2018-04-30T06:59:11.784Z,13.70
2018-04-30T07:01:39.285Z,13.70
2018-04-30T07:04:06.809Z,13.80
2018-04-30T07:06:34.301Z,13.90
2018-04-30T07:09:01.900Z,14.00
2018-04-30T07:11:29.505Z,14.10
2018-04-30T07:13:56.997Z,14.20
2018-04-30T07:16:24.486Z,14.20
2018-04-30T07:21:26.144Z,14.20
2018-04-30T07:23:54.393Z,14.40
2018-04-30T07:26:21.912Z,14.40
2018-04-30T07:28:49.406Z,14.40
2018-04-30T07:31:16.962Z,14.50
2018-04-30T07:33:44.469Z,14.60
2018-04-30T07:36:11.978Z,14.70
2018-04-30T07:38:39.495Z,14.80
2018-04-30T07:41:07.009Z,14.80
2018-04-30T07:43:34.511Z,14.90
2018-04-30T07:46:02.045Z,14.90
2018-04-30T07:48:29.546Z,15.10
2018-04-30T07:50:57.034Z,15.10
2018-04-30T07:53:24.546Z,15.20
2018-04-30T07:55:52.029Z,15.30
2018-04-30T07:58:19.525Z,15.40
2018-04-30T08:00:47.792Z,15.40
2018-04-30T08:03:16.079Z,15.50
2018-04-30T08:05:44.353Z,15.50
2018-04-30T08:08:11.880Z,15.50
2018-04-30T08:10:39.365Z,15.50
2018-04-30T08:13:07.732Z,15.50
2018-04-30T08:15:35.261Z,15.50
2018-04-30T08:18:03.542Z,15.50
2018-04-30T08:20:31.055Z,15.40
2018-04-30T08:22:58.616Z,15.40
2018-04-30T08:25:26.140Z,15.50
2018-04-30T08:27:53.636Z,15.70
2018-04-30T08:30:21.163Z,15.70
2018-04-30T08:32:49.443Z,16.00
2018-04-30T08:35:17.841Z,16.10
2018-04-30T08:37:45.365Z,16.10
2018-04-30T08:40:13.639Z,15.90
2018-04-30T08:42:41.149Z,15.90
2018-04-30T08:45:08.695Z,15.90
2018-04-30T08:47:36.190Z,16.00
2018-04-30T08:50:03.690Z,16.00
2018-04-30T08:52:31.958Z,15.90
2018-04-30T08:54:59.548Z,15.90
2018-04-30T09:00:01.721Z,15.60
2018-04-30T09:02:29.221Z,15.60
2018-04-30T09:04:56.756Z,15.70
2018-04-30T09:07:24.267Z,15.90
2018-04-30T09:09:51.903Z,16.10
2018-04-30T09:12:19.403Z,16.10
2018-04-30T09:14:47.673Z,16.00
2018-04-30T09:17:15.942Z,15.90
2018-04-30T09:19:44.199Z,15.90
2018-04-30T09:22:11.789Z,15.90
2018-04-30T09:24:40.061Z,16.00
2018-04-30T09:27:08.301Z,16.10
2018-04-30T09:29:35.795Z,16.10
2018-04-30T09:32:03.987Z,16.00
2018-04-30T09:34:31.523Z,16.00
2018-04-30T09:36:59.800Z,16.20
2018-04-30T09:39:28.048Z,16.20
2018-04-30T09:41:55.554Z,16.20
2018-04-30T09:44:23.093Z,16.30
2018-04-30T09:46:50.573Z,16.30
2018-04-30T09:49:18.200Z,16.50
2018-04-30T09:51:45.626Z,16.60
2018-04-30T09:54:13.193Z,16.60
2018-04-30T09:56:40.689Z,16.60
2018-04-30T09:59:08.185Z,16.80
2018-04-30T10:01:35.692Z,17.10
2018-04-30T10:04:03.205Z,17.50
2018-04-30T10:06:30.742Z,17.90
2018-04-30T10:08:59.162Z,18.20
2018-04-30T10:11:26.719Z,18.20
2018-04-30T10:13:54.213Z,18.00
2018-04-30T10:16:21.749Z,17.90
2018-04-30T10:18:50.005Z,17.90
2018-04-30T10:21:17.554Z,17.80
2018-04-30T10:23:45.113Z,17.70
2018-04-30T10:26:13.338Z,17.60
2018-04-30T10:28:41.617Z,17.60
2018-04-30T10:31:09.135Z,17.60
2018-04-30T10:33:36.637Z,17.60
2018-04-30T10:36:04.154Z,17.80
2018-04-30T10:38:31.654Z,17.90
2018-04-30T10:40:59.168Z,18.00
2018-04-30T10:43:27.462Z,17.80
2018-04-30T10:45:55.749Z,17.80
2018-04-30T10:48:24.414Z,17.70
2018-04-30T10:50:52.104Z,17.60
2018-04-30T10:53:19.590Z,17.50
2018-04-30T10:55:47.086Z,17.30
2018-04-30T10:58:15.394Z,17.10
2018-04-30T11:00:42.965Z,17.10
2018-04-30T11:03:10.445Z,17.20
2018-04-30T11:05:37.943Z,17.10
2018-04-30T11:08:06.228Z,16.70
2018-04-30T11:10:34.569Z,16.70
2018-04-30T11:13:02.086Z,16.70
2018-04-30T11:15:29.613Z,16.70
2018-04-30T11:17:57.908Z,16.60
2018-04-30T11:20:25.391Z,16.60
2018-04-30T11:22:52.891Z,16.70
2018-04-30T11:27:55.008Z,16.80
2018-04-30T11:30:22.496Z,16.90
2018-04-30T11:32:50.773Z,17.10
2018-04-30T11:35:18.398Z,17.10
2018-04-30T11:37:45.897Z,17.30
2018-04-30T11:40:13.491Z,17.30
2018-04-30T11:42:41.082Z,17.40
2018-04-30T11:45:08.634Z,17.40
2018-04-30T11:47:36.159Z,17.50
2018-04-30T11:50:04.610Z,18.20
2018-04-30T11:52:32.144Z,18.20
2018-04-30T11:54:59.655Z,18.50
2018-04-30T11:57:27.940Z,19.10
2018-04-30T11:59:56.214Z,19.30
2018-04-30T12:02:24.523Z,19.20
2018-04-30T12:04:52.119Z,19.20
2018-04-30T12:07:19.616Z,19.00
2018-04-30T12:09:47.130Z,18.70
2018-04-30T12:12:14.646Z,18.70
2018-04-30T12:14:42.160Z,18.60
2018-04-30T12:17:09.663Z,18.30
2018-04-30T12:19:37.198Z,18.30
2018-04-30T12:22:04.733Z,18.20
2018-04-30T12:24:32.236Z,18.40
2018-04-30T12:26:59.759Z,18.40
2018-04-30T12:29:27.286Z,18.30
2018-04-30T12:31:54.929Z,18.30
2018-04-30T12:34:22.515Z,18.60
2018-04-30T12:36:50.031Z,18.80
2018-04-30T12:39:17.598Z,18.90
2018-04-30T12:41:45.197Z,18.70
2018-04-30T12:44:12.711Z,18.70
2018-04-30T12:46:40.211Z,18.90
2018-04-30T12:49:07.846Z,18.90
2018-04-30T12:51:35.356Z,19.00
2018-04-30T12:54:02.913Z,18.90
2018-04-30T12:56:31.177Z,19.30
2018-04-30T12:58:58.728Z,19.20
2018-04-30T13:01:26.258Z,19.30
2018-04-30T13:03:53.821Z,19.40
2018-04-30T13:06:21.444Z,19.60
2018-04-30T13:08:48.942Z,19.40
2018-04-30T13:11:16.593Z,19.50
2018-04-30T13:13:44.877Z,19.70
2018-04-30T13:16:12.503Z,19.70
2018-04-30T13:18:40.102Z,19.90
2018-04-30T13:21:07.633Z,20.20
2018-04-30T13:23:35.137Z,20.50
2018-04-30T13:26:02.678Z,20.70
2018-04-30T13:28:30.179Z,20.90
2018-04-30T13:30:57.685Z,21.00
2018-04-30T13:33:25.201Z,20.80
2018-04-30T13:36:00.344Z,20.70
2018-04-30T13:38:28.614Z,20.50
2018-04-30T13:40:56.873Z,20.50
2018-04-30T13:43:25.142Z,20.40
2018-04-30T13:45:52.635Z,20.30
2018-04-30T13:48:20.136Z,19.90
2018-04-30T13:53:22.299Z,19.60
2018-04-30T13:55:49.839Z,19.60
2018-04-30T13:58:17.342Z,19.80
2018-04-30T14:00:44.990Z,20.00
2018-04-30T14:03:12.486Z,20.20
2018-04-30T14:05:39.997Z,19.80
2018-04-30T14:08:07.563Z,19.40
2018-04-30T14:10:35.101Z,19.40
2018-04-30T14:13:02.627Z,19.20
2018-04-30T14:15:30.260Z,18.70
2018-04-30T14:17:57.843Z,18.60
2018-04-30T14:20:25.402Z,18.80
2018-04-30T14:22:53.004Z,19.00
2018-04-30T14:25:20.514Z,19.30
2018-04-30T14:27:48.072Z,19.20
2018-04-30T14:30:16.357Z,19.40
2018-04-30T14:32:44.642Z,19.70
2018-04-30T14:35:12.149Z,19.70
2018-04-30T14:37:39.675Z,20.10
2018-04-30T14:40:07.210Z,20.20
2018-04-30T14:42:35.528Z,20.40
2018-04-30T14:45:03.004Z,20.40
2018-04-30T14:47:30.542Z,20.20
2018-04-30T14:49:58.055Z,20.10
2018-04-30T14:52:25.566Z,20.10
2018-04-30T14:54:53.100Z,20.20
2018-04-30T14:57:20.641Z,20.20
2018-04-30T14:59:48.132Z,20.40
2018-04-30T15:02:15.618Z,20.70
2018-04-30T15:04:43.117Z,20.60
2018-04-30T15:07:10.610Z,21.00
2018-04-30T15:09:38.122Z,20.90
2018-04-30T15:12:06.439Z,20.70
2018-04-30T15:14:33.944Z,20.70
2018-04-30T15:17:02.202Z,20.00
2018-04-30T15:19:29.730Z,20.00
2018-04-30T15:21:57.241Z,19.50
2018-04-30T15:24:24.708Z,19.50
2018-04-30T15:26:52.217Z,19.40
2018-04-30T15:29:19.738Z,19.20
2018-04-30T15:31:47.228Z,19.20
2018-04-30T15:34:14.723Z,18.80
2018-04-30T15:36:42.260Z,18.60
2018-04-30T15:39:09.851Z,18.70
2018-04-30T15:41:37.341Z,18.60
2018-04-30T15:44:04.837Z,18.60
2018-04-30T15:46:32.312Z,18.60
2018-04-30T15:49:00.602Z,18.70
2018-04-30T15:51:28.102Z,18.70
2018-04-30T15:53:55.606Z,18.70
2018-04-30T15:56:23.891Z,18.50
2018-04-30T15:58:51.500Z,18.50
2018-04-30T16:01:19.072Z,18.50
2018-04-30T16:03:46.657Z,18.40
2018-04-30T16:06:14.900Z,18.30
2018-04-30T16:08:42.408Z,18.30
2018-04-30T16:11:09.946Z,18.30
2018-04-30T16:13:37.464Z,18.30
2018-04-30T16:16:04.978Z,18.30
2018-04-30T16:18:32.460Z,18.20
2018-04-30T16:20:59.956Z,18.00
2018-04-30T16:23:27.464Z,17.90
2018-04-30T16:25:55.143Z,17.90
2018-04-30T16:28:23.371Z,17.60
2018-04-30T16:30:51.658Z,17.50
2018-04-30T16:33:19.152Z,17.50
2018-04-30T16:35:46.757Z,17.40
2018-04-30T16:38:15.031Z,17.50
2018-04-30T16:40:43.409Z,17.50
2018-04-30T16:43:11.034Z,17.50
2018-04-30T16:45:38.598Z,17.50
2018-04-30T16:48:06.108Z,17.50
2018-04-30T16:50:33.919Z,17.40
2018-04-30T16:53:01.605Z,17.20
2018-04-30T16:55:29.168Z,17.20
2018-04-30T16:57:56.667Z,17.10
2018-04-30T17:00:24.161Z,17.30
2018-04-30T17:02:51.664Z,17.20
2018-04-30T17:05:19.190Z,16.90
2018-04-30T17:07:47.498Z,16.30
2018-04-30T17:10:15.801Z,16.20
2018-04-30T17:12:43.345Z,16.20
2018-04-30T17:15:10.842Z,16.00
2018-04-30T17:17:39.165Z,15.80
2018-04-30T17:20:06.712Z,15.70
2018-04-30T17:22:34.291Z,15.70
2018-04-30T17:25:01.832Z,15.80
2018-04-30T17:27:29.400Z,15.70
2018-04-30T17:29:56.939Z,15.70
2018-04-30T17:32:24.530Z,15.60
2018-04-30T17:34:52.100Z,15.50
2018-04-30T17:37:19.694Z,15.60
2018-04-30T17:39:47.190Z,15.50
2018-04-30T17:42:15.467Z,15.60
2018-04-30T17:44:43.051Z,15.50
2018-04-30T17:47:11.397Z,15.40
2018-04-30T17:49:39.655Z,15.40
2018-04-30T17:52:07.250Z,15.40
2018-04-30T17:54:35.474Z,15.40
2018-04-30T17:57:03.776Z,15.30
2018-04-30T17:59:31.334Z,15.30
2018-04-30T18:01:59.616Z,15.20
2018-04-30T18:04:27.133Z,15.20
2018-04-30T18:06:54.749Z,15.10
2018-04-30T18:09:22.202Z,15.10
2018-04-30T18:11:49.727Z,15.00
2018-04-30T18:14:18.013Z,14.70
2018-04-30T18:16:45.655Z,14.70
2018-04-30T18:19:13.159Z,14.60
2018-04-30T18:21:40.683Z,14.50
2018-04-30T18:24:08.199Z,14.50
2018-04-30T18:26:35.817Z,14.40
2018-04-30T18:29:03.261Z,14.50
2018-04-30T18:31:30.783Z,14.40
2018-04-30T18:33:58.322Z,14.40
2018-04-30T18:36:25.821Z,14.20
2018-04-30T18:38:53.333Z,14.00
2018-04-30T18:41:20.854Z,14.00
2018-04-30T18:43:49.241Z,13.90
2018-04-30T18:46:16.761Z,13.90
2018-04-30T18:48:44.285Z,13.80
2018-04-30T18:51:11.875Z,13.90
2018-04-30T18:53:39.505Z,13.90
2018-04-30T18:56:07.037Z,13.90
2018-04-30T18:58:34.555Z,13.80
2018-04-30T19:01:02.093Z,13.80
2018-04-30T19:03:29.592Z,13.70
2018-04-30T19:05:57.650Z,13.60
2018-04-30T19:08:25.163Z,13.50
2018-04-30T19:10:52.735Z,13.50
2018-04-30T19:13:20.244Z,13.60
2018-04-30T19:15:48.530Z,13.40
2018-04-30T19:18:16.963Z,13.40
2018-04-30T19:20:44.484Z,13.40
2018-04-30T19:23:11.991Z,13.40
2018-04-30T19:25:39.534Z,13.20
2018-04-30T19:28:07.031Z,13.10
2018-04-30T19:30:35.408Z,13.00
2018-04-30T19:33:03.667Z,13.00
2018-04-30T19:35:31.182Z,13.00
2018-04-30T19:37:58.670Z,12.90
2018-04-30T19:40:26.986Z,12.90
2018-04-30T19:42:55.465Z,12.80
2018-04-30T19:45:23.019Z,12.70
2018-04-30T19:47:51.329Z,12.60
2018-04-30T19:50:18.828Z,12.60
2018-04-30T19:52:46.332Z,12.50
2018-04-30T19:55:13.816Z,12.50
2018-04-30T19:57:41.317Z,12.40
2018-04-30T20:00:09.636Z,12.40
2018-04-30T20:02:37.140Z,12.40
2018-04-30T20:05:04.639Z,12.40
2018-04-30T20:07:32.202Z,12.30
2018-04-30T20:09:59.713Z,12.40
2018-04-30T20:12:27.193Z,12.30
2018-04-30T20:14:55.486Z,12.30
2018-04-30T20:17:23.743Z,12.30
2018-04-30T20:19:52.035Z,12.30
2018-04-30T20:22:19.557Z,12.30
2018-04-30T20:24:47.062Z,12.30
2018-04-30T20:27:14.575Z,12.40
2018-04-30T20:29:42.065Z,12.30
2018-04-30T20:32:09.597Z,12.30
2018-04-30T20:34:37.106Z,12.40
2018-04-30T20:37:04.577Z,12.40
2018-04-30T20:39:32.125Z,12.50
2018-04-30T20:41:59.619Z,12.60
2018-04-30T20:44:27.202Z,12.60
2018-04-30T20:46:54.653Z,12.60
2018-04-30T20:49:22.914Z,12.70
2018-04-30T20:51:50.484Z,12.70
2018-04-30T20:54:18.038Z,12.70
2018-04-30T20:56:45.610Z,12.70
2018-04-30T20:59:13.149Z,12.70
2018-04-30T21:01:42.171Z,12.60
2018-04-30T21:04:09.672Z,12.60
2018-04-30T21:06:37.290Z,12.50
2018-04-30T21:09:13.429Z,12.40
2018-04-30T21:11:41.688Z,12.40
2018-04-30T21:14:09.221Z,12.40
2018-04-30T21:16:37.511Z,12.40
2018-04-30T21:19:05.018Z,12.50
2018-04-30T21:21:32.513Z,12.30
2018-04-30T21:24:00.023Z,12.30
2018-04-30T21:26:28.294Z,12.30
2018-04-30T21:28:56.579Z,12.20
2018-04-30T21:31:24.066Z,12.20
2018-04-30T21:33:51.553Z,12.20
2018-04-30T21:36:19.089Z,12.10
2018-04-30T21:38:46.644Z,12.10
2018-04-30T21:41:14.153Z,12.20
2018-04-30T21:43:42.450Z,12.20
2018-04-30T21:46:09.974Z,12.20
2018-04-30T21:48:37.499Z,12.10
2018-04-30T21:51:05.103Z,12.20
2018-04-30T21:53:33.360Z,12.20
2018-04-30T21:56:00.860Z,12.20
2018-04-30T21:58:28.412Z,12.20
2018-04-30T22:00:55.914Z,12.10
2018-04-30T22:03:23.455Z,12.20
2018-04-30T22:05:50.958Z,12.10
2018-04-30T22:08:18.481Z,12.00
2018-04-30T22:10:46.016Z,12.10
2018-04-30T22:13:13.524Z,12.10
2018-04-30T22:15:41.006Z,12.10
2018-04-30T22:18:09.277Z,12.00
2018-04-30T22:20:36.839Z,12.00
2018-04-30T22:23:04.498Z,12.10
2018-04-30T22:25:32.025Z,12.00
2018-04-30T22:27:59.579Z,12.00
2018-04-30T22:30:27.075Z,12.00
2018-04-30T22:32:55.340Z,12.00
2018-04-30T22:35:23.629Z,12.00
2018-04-30T22:37:51.923Z,12.00
2018-04-30T22:40:19.451Z,12.00
2018-04-30T22:42:47.714Z,11.90
2018-04-30T22:45:15.310Z,11.90
2018-04-30T22:47:42.739Z,11.90
2018-04-30T22:50:11.045Z,11.90
2018-04-30T22:52:38.603Z,11.90
2018-04-30T22:55:06.102Z,11.90
2018-04-30T22:57:33.641Z,11.90
2018-04-30T23:00:01.293Z,11.80
2018-04-30T23:02:28.792Z,11.70
2018-04-30T23:04:56.327Z,11.70
2018-04-30T23:07:23.833Z,11.70
2018-04-30T23:09:51.349Z,11.70
2018-04-30T23:12:18.848Z,11.70
2018-04-30T23:14:46.394Z,11.70
2018-04-30T23:17:14.698Z,11.60
2018-04-30T23:19:42.203Z,11.60
2018-04-30T23:22:09.768Z,11.60
2018-04-30T23:24:37.293Z,11.70
2018-04-30T23:27:04.822Z,11.60
2018-04-30T23:29:33.093Z,11.60
2018-04-30T23:32:00.619Z,11.50
2018-04-30T23:34:29.067Z,11.40
2018-04-30T23:36:56.599Z,11.30
2018-04-30T23:39:24.108Z,11.30
2018-04-30T23:41:51.606Z,11.20
2018-04-30T23:44:19.126Z,11.30
2018-04-30T23:46:46.663Z,11.20
2018-04-30T23:49:14.253Z,11.20
2018-04-30T23:51:41.857Z,11.10
2018-04-30T23:54:09.393Z,11.10
2018-04-30T23:56:36.923Z,11.10
2018-04-30T23:59:04.437Z,11.10
